createdAt,value
2019-01-31T00:00:30.651Z,2.57
2019-01-31T00:04:05.874Z,2.49
2019-01-31T00:06:46.005Z,2.51
2019-01-31T00:09:36.363Z,2.33
2019-01-31T00:12:53.670Z,2.54
2019-01-31T00:15:28.704Z,2.59
2019-01-31T00:18:47.823Z,2.77
2019-01-31T00:21:33.098Z,2.72
2019-01-31T00:24:31.021Z,2.65
2019-01-31T00:27:44.276Z,2.76
2019-01-31T00:30:25.072Z,2.41
2019-01-31T00:33:36.844Z,2.67
2019-01-31T00:36:48.224Z,2.74
2019-01-31T00:40:05.276Z,2.84
2019-01-31T00:43:01.554Z,2.79
2019-01-31T00:45:57.458Z,2.78
2019-01-31T00:49:04.609Z,2.81
2019-01-31T00:52:15.486Z,2.75
2019-01-31T00:55:13.882Z,2.75
2019-01-31T00:58:48.967Z,2.75
2019-01-31T01:01:50.863Z,2.72
2019-01-31T01:05:12.658Z,2.60
2019-01-31T01:08:20.201Z,2.64
2019-01-31T01:11:20.233Z,2.65
2019-01-31T01:14:49.414Z,2.77
2019-01-31T01:17:25.849Z,2.69
2019-01-31T01:20:17.350Z,2.77
2019-01-31T01:23:25.718Z,2.62
2019-01-31T01:26:22.820Z,2.39
2019-01-31T01:29:42.042Z,2.63
2019-01-31T01:32:54.569Z,2.76
2019-01-31T01:36:11.643Z,2.58
2019-01-31T01:39:19.607Z,2.67
2019-01-31T01:42:26.628Z,2.69
2019-01-31T01:45:39.518Z,2.68
2019-01-31T01:48:53.676Z,2.76
2019-01-31T01:51:35.830Z,2.68
2019-01-31T01:54:47.770Z,2.71
2019-01-31T01:58:06.618Z,2.46
2019-01-31T02:01:22.022Z,2.49
2019-01-31T02:04:11.885Z,2.42
2019-01-31T02:07:09.985Z,2.27
2019-01-31T02:10:05.548Z,2.27
2019-01-31T02:13:14.947Z,2.27
2019-01-31T02:16:51.527Z,2.22
2019-01-31T02:19:53.903Z,2.11
2019-01-31T02:22:55.868Z,2.06
2019-01-31T02:25:31.404Z,1.99
2019-01-31T02:28:37.051Z,2.00
2019-01-31T02:31:38.744Z,1.98
2019-01-31T02:34:49.770Z,1.97
2019-01-31T02:37:56.077Z,1.92
2019-01-31T02:40:55.722Z,1.90
2019-01-31T02:43:53.706Z,1.91
2019-01-31T02:46:56.245Z,1.84
2019-01-31T02:50:15.279Z,1.80
2019-01-31T02:53:03.140Z,1.86
2019-01-31T02:56:11.081Z,1.93
2019-01-31T02:59:06.985Z,1.88
2019-01-31T03:01:52.067Z,1.86
2019-01-31T03:04:52.803Z,1.86
2019-01-31T03:08:01.093Z,1.82
2019-01-31T03:10:41.149Z,1.81
2019-01-31T03:13:44.425Z,1.76
2019-01-31T03:17:10.334Z,1.81
2019-01-31T03:20:23.315Z,1.73
2019-01-31T03:23:06.018Z,1.74
2019-01-31T03:26:03.901Z,1.85
2019-01-31T03:29:27.202Z,1.83
2019-01-31T03:32:36.237Z,1.89
2019-01-31T03:35:50.035Z,1.91
2019-01-31T03:39:05.058Z,1.93
2019-01-31T03:42:07.863Z,1.78
2019-01-31T03:45:22.167Z,1.93
2019-01-31T03:48:48.426Z,2.01
2019-01-31T03:51:55.595Z,1.95
2019-01-31T03:54:51.517Z,2.07
2019-01-31T03:57:37.985Z,2.20
2019-01-31T04:00:24.301Z,2.29
2019-01-31T04:03:16.117Z,2.19
2019-01-31T04:05:57.787Z,2.42
2019-01-31T04:08:27.693Z,2.34
2019-01-31T04:10:57.711Z,2.47
2019-01-31T04:13:27.744Z,2.51
2019-01-31T04:16:03.711Z,2.61
2019-01-31T04:18:35.255Z,2.65
2019-01-31T04:21:05.254Z,2.58
2019-01-31T04:23:35.181Z,2.45
2019-01-31T04:26:08.975Z,2.46
2019-01-31T04:28:40.695Z,2.60
2019-01-31T04:31:12.364Z,2.65
2019-01-31T04:33:42.382Z,2.71
2019-01-31T04:36:12.286Z,2.78
2019-01-31T04:38:42.222Z,2.79
2019-01-31T04:41:12.175Z,2.77
2019-01-31T04:43:44.918Z,2.79
2019-01-31T04:46:14.832Z,2.85
2019-01-31T04:48:44.799Z,2.85
2019-01-31T04:51:15.790Z,2.96
2019-01-31T04:53:46.847Z,2.96
2019-01-31T04:56:16.786Z,2.99
2019-01-31T04:58:50.397Z,3.01
2019-01-31T05:01:26.549Z,2.92
2019-01-31T05:03:56.065Z,2.79
2019-01-31T05:06:25.935Z,2.99
2019-01-31T05:08:55.746Z,2.94
2019-01-31T05:11:25.641Z,3.00
2019-01-31T05:14:00.985Z,2.95
2019-01-31T05:16:31.984Z,2.88
2019-01-31T05:19:01.982Z,2.99
2019-01-31T05:21:31.858Z,3.02
2019-01-31T05:24:01.792Z,3.03
2019-01-31T05:26:31.770Z,3.00
2019-01-31T05:29:01.693Z,3.10
2019-01-31T05:31:32.038Z,3.05
2019-01-31T05:34:02.436Z,2.97
2019-01-31T05:36:32.425Z,2.96
2019-01-31T05:39:02.320Z,2.99
2019-01-31T05:41:33.328Z,3.04
2019-01-31T05:44:05.782Z,2.98
2019-01-31T05:46:35.694Z,2.89
2019-01-31T05:49:05.895Z,2.85
2019-01-31T05:51:39.225Z,2.86
2019-01-31T05:54:10.127Z,2.71
2019-01-31T05:56:39.962Z,2.63
2019-01-31T05:59:09.792Z,2.55
2019-01-31T06:01:39.669Z,2.47
2019-01-31T06:04:09.430Z,2.37
2019-01-31T06:06:39.411Z,2.20
2019-01-31T06:09:10.503Z,2.12
2019-01-31T06:11:40.376Z,2.07
2019-01-31T06:14:10.241Z,2.02
2019-01-31T06:16:40.251Z,2.06
2019-01-31T06:19:10.170Z,1.90
2019-01-31T06:21:41.223Z,2.07
2019-01-31T06:24:11.167Z,2.00
2019-01-31T06:26:41.114Z,2.07
2019-01-31T06:29:11.057Z,2.04
2019-01-31T06:31:40.977Z,2.02
2019-01-31T06:34:11.168Z,1.94
2019-01-31T06:36:42.033Z,1.85
2019-01-31T06:39:14.501Z,1.77
2019-01-31T06:41:44.463Z,1.85
2019-01-31T06:44:14.793Z,1.88
2019-01-31T06:46:44.663Z,1.89
2019-01-31T06:49:14.657Z,1.91
2019-01-31T06:51:44.558Z,1.97
2019-01-31T06:54:14.477Z,1.99
2019-01-31T06:56:44.450Z,1.98
2019-01-31T06:59:14.613Z,2.02
2019-01-31T07:01:44.530Z,1.97
2019-01-31T07:04:14.607Z,2.00
2019-01-31T07:06:44.424Z,1.98
2019-01-31T07:09:14.333Z,1.92
2019-01-31T07:11:44.099Z,1.88
2019-01-31T07:14:14.047Z,1.93
2019-01-31T07:16:46.330Z,2.01
2019-01-31T07:19:16.163Z,1.94
2019-01-31T07:21:46.833Z,1.93
2019-01-31T07:24:16.783Z,1.84
2019-01-31T07:26:46.736Z,1.84
2019-01-31T07:29:16.597Z,1.81
2019-01-31T07:31:46.543Z,1.76
2019-01-31T07:34:16.403Z,1.64
2019-01-31T07:36:46.329Z,1.56
2019-01-31T07:39:16.243Z,1.55
2019-01-31T07:41:46.389Z,1.53
2019-01-31T07:44:16.225Z,1.43
2019-01-31T07:46:46.043Z,1.51
2019-01-31T07:49:15.876Z,1.55
2019-01-31T07:51:45.792Z,1.51
2019-01-31T07:54:15.543Z,1.61
2019-01-31T07:56:45.525Z,1.66
2019-01-31T07:59:15.338Z,1.59
2019-01-31T08:01:45.270Z,1.56
2019-01-31T08:04:15.184Z,1.59
2019-01-31T08:06:45.267Z,1.69
2019-01-31T08:09:15.103Z,1.71
2019-01-31T08:11:52.422Z,1.57
2019-01-31T08:14:16.693Z,1.51
2019-01-31T08:16:46.633Z,1.43
2019-01-31T08:19:17.503Z,1.21
2019-01-31T08:21:47.516Z,1.34
2019-01-31T08:24:17.319Z,1.43
2019-01-31T08:26:47.214Z,1.48
2019-01-31T08:29:17.146Z,1.43
2019-01-31T08:31:47.294Z,1.15
2019-01-31T08:34:19.234Z,1.46
2019-01-31T08:36:49.094Z,1.64
2019-01-31T08:39:19.032Z,1.78
2019-01-31T08:41:49.044Z,1.92
2019-01-31T08:44:19.120Z,1.99
2019-01-31T08:46:49.166Z,2.04
2019-01-31T08:49:18.990Z,2.00
2019-01-31T08:51:49.122Z,1.91
2019-01-31T08:54:20.400Z,2.00
2019-01-31T08:56:50.470Z,1.99
2019-01-31T08:59:20.262Z,1.92
2019-01-31T09:01:50.240Z,1.89
2019-01-31T09:04:20.212Z,1.99
2019-01-31T09:06:50.656Z,2.16
2019-01-31T09:09:21.295Z,2.58
2019-01-31T09:11:51.430Z,3.60
2019-01-31T09:14:21.286Z,3.94
2019-01-31T09:16:51.345Z,4.23
2019-01-31T09:19:21.504Z,4.37
2019-01-31T09:21:57.306Z,4.01
2019-01-31T09:24:54.661Z,3.57
2019-01-31T09:28:04.599Z,3.23
2019-01-31T09:31:10.419Z,3.13
2019-01-31T09:34:13.114Z,2.88
2019-01-31T09:37:06.703Z,2.76
2019-01-31T09:39:50.035Z,2.82
2019-01-31T09:42:28.673Z,2.75
2019-01-31T09:45:41.658Z,2.83
2019-01-31T09:48:20.391Z,2.88
2019-01-31T09:51:17.549Z,2.89
2019-01-31T09:54:18.394Z,3.08
2019-01-31T09:57:25.375Z,3.07
2019-01-31T10:00:37.883Z,3.02
2019-01-31T10:03:36.103Z,3.05
2019-01-31T10:06:41.617Z,2.99
2019-01-31T10:09:30.391Z,2.93
2019-01-31T10:12:56.430Z,3.11
2019-01-31T10:16:14.878Z,3.11
2019-01-31T10:19:23.287Z,3.09
2019-01-31T10:22:14.243Z,3.18
2019-01-31T10:25:13.279Z,3.27
2019-01-31T10:27:59.209Z,3.17
2019-01-31T10:30:59.291Z,3.23
2019-01-31T10:34:13.661Z,3.33
2019-01-31T10:37:01.495Z,3.36
2019-01-31T10:40:24.901Z,3.51
2019-01-31T10:43:23.549Z,3.62
2019-01-31T10:46:27.876Z,3.59
2019-01-31T10:49:45.809Z,3.52
2019-01-31T10:52:55.143Z,3.48
2019-01-31T10:56:14.023Z,3.23
2019-01-31T10:59:23.717Z,3.40
2019-01-31T11:02:38.261Z,3.52
2019-01-31T11:05:22.037Z,3.54
2019-01-31T11:08:16.327Z,3.57
2019-01-31T11:11:13.989Z,3.58
2019-01-31T11:14:43.027Z,3.57
2019-01-31T11:18:01.788Z,3.72
2019-01-31T11:20:51.737Z,3.74
2019-01-31T11:24:02.735Z,3.71
2019-01-31T11:27:09.581Z,3.71
2019-01-31T11:30:19.714Z,3.61
2019-01-31T11:33:27.994Z,3.79
2019-01-31T11:36:39.005Z,3.86
2019-01-31T11:39:34.930Z,3.93
2019-01-31T11:42:32.298Z,3.84
2019-01-31T11:45:53.954Z,3.89
2019-01-31T11:49:04.227Z,3.89
2019-01-31T11:52:18.728Z,3.79
2019-01-31T11:55:05.538Z,3.77
2019-01-31T11:58:23.132Z,3.82
2019-01-31T12:00:53.322Z,3.90
2019-01-31T12:03:23.875Z,4.02
2019-01-31T12:05:54.991Z,4.01
2019-01-31T12:08:25.452Z,4.00
2019-01-31T12:10:55.314Z,3.91
2019-01-31T12:13:25.456Z,3.84
2019-01-31T12:15:55.800Z,3.86
2019-01-31T12:18:25.881Z,3.63
2019-01-31T12:20:55.828Z,3.98
2019-01-31T12:23:25.786Z,4.03
2019-01-31T12:25:55.752Z,4.15
2019-01-31T12:28:25.696Z,4.21
2019-01-31T12:30:55.597Z,4.20
2019-01-31T12:33:25.742Z,4.15
2019-01-31T12:35:55.774Z,4.10
2019-01-31T12:38:36.454Z,4.23
2019-01-31T12:41:00.624Z,4.23
2019-01-31T12:43:35.236Z,4.17
2019-01-31T12:46:02.239Z,4.29
2019-01-31T12:48:32.214Z,4.39
2019-01-31T12:51:02.114Z,4.38
2019-01-31T12:53:32.093Z,4.14
2019-01-31T12:56:02.001Z,4.00
2019-01-31T12:58:34.063Z,4.11
2019-01-31T13:01:04.645Z,4.13
2019-01-31T13:03:34.521Z,4.22
2019-01-31T13:06:04.539Z,4.25
2019-01-31T13:08:34.504Z,4.27
2019-01-31T13:11:04.402Z,4.20
2019-01-31T13:13:45.160Z,4.20
2019-01-31T13:16:05.841Z,4.22
2019-01-31T13:18:36.880Z,4.20
2019-01-31T13:21:06.890Z,4.03
2019-01-31T13:23:36.760Z,4.08
2019-01-31T13:26:06.715Z,4.14
2019-01-31T13:28:36.674Z,4.13
2019-01-31T13:31:06.892Z,3.90
2019-01-31T13:33:36.746Z,4.16
2019-01-31T13:36:12.827Z,4.24
2019-01-31T13:38:42.947Z,4.16
2019-01-31T13:41:12.998Z,4.18
2019-01-31T13:43:42.847Z,4.20
2019-01-31T13:46:12.939Z,4.07
2019-01-31T13:48:42.984Z,4.13
2019-01-31T13:51:13.105Z,3.99
2019-01-31T13:53:43.191Z,4.05
2019-01-31T13:56:13.018Z,4.06
2019-01-31T13:58:42.964Z,4.12
2019-01-31T14:01:12.860Z,4.19
2019-01-31T14:03:43.762Z,4.13
2019-01-31T14:06:13.709Z,3.96
2019-01-31T14:08:43.652Z,3.99
2019-01-31T14:11:13.643Z,3.50
2019-01-31T14:13:43.614Z,3.74
2019-01-31T14:16:13.795Z,3.93
2019-01-31T14:18:43.835Z,3.99
2019-01-31T14:21:13.775Z,3.90
2019-01-31T14:23:43.887Z,3.67
2019-01-31T14:26:13.777Z,3.63
2019-01-31T14:28:43.777Z,3.61
2019-01-31T14:31:13.743Z,3.50
2019-01-31T14:33:43.726Z,3.61
2019-01-31T14:36:13.661Z,3.63
2019-01-31T14:38:43.595Z,3.60
2019-01-31T14:41:16.464Z,3.63
2019-01-31T14:43:46.104Z,3.44
2019-01-31T14:46:16.023Z,3.37
2019-01-31T14:48:45.950Z,3.49
2019-01-31T14:51:16.055Z,3.48
2019-01-31T14:53:48.771Z,3.65
2019-01-31T14:56:18.780Z,3.54
2019-01-31T14:58:48.762Z,3.43
2019-01-31T15:01:18.791Z,3.48
2019-01-31T15:03:51.509Z,3.30
2019-01-31T15:06:20.322Z,3.21
2019-01-31T15:08:50.197Z,3.33
2019-01-31T15:11:20.070Z,3.26
2019-01-31T15:13:50.258Z,3.37
2019-01-31T15:16:20.232Z,3.22
2019-01-31T15:18:50.132Z,3.26
2019-01-31T15:21:20.180Z,3.15
2019-01-31T15:23:50.145Z,3.30
2019-01-31T15:26:20.143Z,3.28
2019-01-31T15:28:50.151Z,3.16
2019-01-31T15:31:20.341Z,3.25
2019-01-31T15:33:50.440Z,3.26
2019-01-31T15:36:20.370Z,3.00
2019-01-31T15:38:50.346Z,2.86
2019-01-31T15:41:20.432Z,2.88
2019-01-31T15:43:50.466Z,3.02
2019-01-31T15:46:20.415Z,2.80
2019-01-31T15:48:51.618Z,2.83
2019-01-31T15:51:22.502Z,2.85
2019-01-31T15:53:52.521Z,2.76
2019-01-31T15:56:22.540Z,2.90
2019-01-31T15:58:52.698Z,2.83
2019-01-31T16:01:25.518Z,2.78
2019-01-31T16:04:05.410Z,2.80
2019-01-31T16:06:36.924Z,2.84
2019-01-31T16:09:08.331Z,2.68
2019-01-31T16:11:38.578Z,2.69
2019-01-31T16:14:08.719Z,2.70
2019-01-31T16:16:49.224Z,2.57
2019-01-31T16:19:19.084Z,2.61
2019-01-31T16:21:48.903Z,2.57
2019-01-31T16:24:18.840Z,2.53
2019-01-31T16:26:49.543Z,2.48
2019-01-31T16:29:19.457Z,2.45
2019-01-31T16:31:49.403Z,2.41
2019-01-31T16:34:22.459Z,2.35
2019-01-31T16:36:59.888Z,2.24
2019-01-31T16:39:30.057Z,2.24
2019-01-31T16:42:00.318Z,2.20
2019-01-31T16:44:30.545Z,2.12
2019-01-31T16:47:00.943Z,2.12
2019-01-31T16:49:32.804Z,2.11
2019-01-31T16:52:02.840Z,2.06
2019-01-31T16:54:32.831Z,2.02
2019-01-31T16:57:02.976Z,1.97
2019-01-31T16:59:39.597Z,1.94
2019-01-31T17:02:09.855Z,1.88
2019-01-31T17:04:39.907Z,1.86
2019-01-31T17:07:09.799Z,1.78
2019-01-31T17:09:40.815Z,1.79
2019-01-31T17:12:11.065Z,1.79
2019-01-31T17:14:41.015Z,1.73
2019-01-31T17:17:11.008Z,1.64
2019-01-31T17:19:44.325Z,1.64
2019-01-31T17:22:17.813Z,1.66
2019-01-31T17:24:47.774Z,1.58
2019-01-31T17:27:18.979Z,1.53
2019-01-31T17:29:53.312Z,1.45
2019-01-31T17:32:24.139Z,1.52
2019-01-31T17:34:54.033Z,1.48
2019-01-31T17:37:25.324Z,1.46
2019-01-31T17:39:55.484Z,1.41
2019-01-31T17:42:25.937Z,1.40
2019-01-31T17:44:55.806Z,1.22
2019-01-31T17:47:25.791Z,1.24
2019-01-31T17:49:55.700Z,1.33
2019-01-31T17:52:27.416Z,1.30
2019-01-31T17:54:57.230Z,1.36
2019-01-31T17:57:27.400Z,1.34
2019-01-31T17:59:57.433Z,1.28
2019-01-31T18:02:27.641Z,1.12
2019-01-31T18:04:57.602Z,1.21
2019-01-31T18:07:27.583Z,1.17
2019-01-31T18:09:57.495Z,1.13
2019-01-31T18:12:27.439Z,1.13
2019-01-31T18:14:59.884Z,1.11
2019-01-31T18:17:33.317Z,1.01
2019-01-31T18:20:06.642Z,1.16
2019-01-31T18:22:36.467Z,1.10
2019-01-31T18:25:08.585Z,1.10
2019-01-31T18:27:40.116Z,1.17
2019-01-31T18:30:21.942Z,1.10
2019-01-31T18:32:52.120Z,1.19
2019-01-31T18:35:22.054Z,1.23
2019-01-31T18:37:52.006Z,1.17
2019-01-31T18:40:31.654Z,1.19
2019-01-31T18:43:01.597Z,1.24
2019-01-31T18:45:32.211Z,1.40
2019-01-31T18:48:02.583Z,1.38
2019-01-31T18:50:34.339Z,1.47
2019-01-31T18:53:04.210Z,1.44
2019-01-31T18:55:34.121Z,1.60
2019-01-31T18:58:05.428Z,1.59
2019-01-31T19:00:37.522Z,1.65
2019-01-31T19:03:07.428Z,1.55
2019-01-31T19:05:37.723Z,1.56
2019-01-31T19:08:11.024Z,1.46
2019-01-31T19:10:43.876Z,1.58
2019-01-31T19:13:15.552Z,1.66
2019-01-31T19:15:46.496Z,1.69
2019-01-31T19:18:16.467Z,1.50
2019-01-31T19:20:56.845Z,1.43
2019-01-31T19:23:29.768Z,1.43
2019-01-31T19:25:59.751Z,1.39
2019-01-31T19:28:29.855Z,1.33
2019-01-31T19:30:59.800Z,1.41
2019-01-31T19:33:29.767Z,1.18
2019-01-31T19:36:01.803Z,1.25
2019-01-31T19:38:31.786Z,1.40
2019-01-31T19:41:01.759Z,0.99
2019-01-31T19:43:31.924Z,1.14
2019-01-31T19:46:01.993Z,1.10
2019-01-31T19:48:31.940Z,1.22
2019-01-31T19:51:06.221Z,1.28
2019-01-31T19:53:37.875Z,0.99
2019-01-31T19:56:08.836Z,1.15
2019-01-31T19:58:39.002Z,1.33
2019-01-31T20:01:08.861Z,1.34
2019-01-31T20:03:38.689Z,1.44
2019-01-31T20:06:08.647Z,1.47
2019-01-31T20:08:39.810Z,1.58
2019-01-31T20:11:12.715Z,1.39
2019-01-31T20:13:43.924Z,1.34
2019-01-31T20:16:17.918Z,1.45
2019-01-31T20:18:47.449Z,1.41
2019-01-31T20:21:17.396Z,1.19
2019-01-31T20:23:47.411Z,1.19
2019-01-31T20:26:17.357Z,1.13
2019-01-31T20:28:47.368Z,0.94
2019-01-31T20:31:19.009Z,0.91
2019-01-31T20:33:49.008Z,0.81
2019-01-31T20:36:19.020Z,0.83
2019-01-31T20:38:52.243Z,0.57
2019-01-31T20:41:23.257Z,0.59
2019-01-31T20:43:53.259Z,0.76
2019-01-31T20:46:23.354Z,0.76
2019-01-31T20:48:53.321Z,0.70
2019-01-31T20:51:23.315Z,0.86
2019-01-31T20:53:53.255Z,0.94
2019-01-31T20:56:23.223Z,0.89
2019-01-31T20:58:53.241Z,0.98
2019-01-31T21:01:23.201Z,1.08
2019-01-31T21:03:53.182Z,1.12
2019-01-31T21:06:23.305Z,1.10
2019-01-31T21:08:53.337Z,1.16
2019-01-31T21:11:23.258Z,1.22
2019-01-31T21:13:53.107Z,1.14
2019-01-31T21:16:22.987Z,1.25
2019-01-31T21:18:52.937Z,1.39
2019-01-31T21:21:22.824Z,1.43
2019-01-31T21:23:52.791Z,1.35
2019-01-31T21:26:24.706Z,1.37
2019-01-31T21:28:54.393Z,1.31
2019-01-31T21:31:24.359Z,1.31
2019-01-31T21:33:54.354Z,1.33
2019-01-31T21:36:24.289Z,1.21
2019-01-31T21:38:54.232Z,1.42
2019-01-31T21:41:24.162Z,1.45
2019-01-31T21:43:54.056Z,1.28
2019-01-31T21:46:23.871Z,1.12
2019-01-31T21:48:53.789Z,1.13
2019-01-31T21:51:23.683Z,1.06
2019-01-31T21:53:53.518Z,1.00
2019-01-31T21:56:23.468Z,0.96
2019-01-31T21:58:53.434Z,1.01
2019-01-31T22:01:23.351Z,0.95
2019-01-31T22:03:53.299Z,0.88
2019-01-31T22:06:23.241Z,0.80
2019-01-31T22:08:53.165Z,0.85
2019-01-31T22:11:23.049Z,0.78
2019-01-31T22:13:52.965Z,0.72
2019-01-31T22:16:22.946Z,0.63
2019-01-31T22:18:52.824Z,0.70
2019-01-31T22:21:22.781Z,0.61
2019-01-31T22:23:52.651Z,0.62
2019-01-31T22:26:22.645Z,0.58
2019-01-31T22:28:52.645Z,0.54
2019-01-31T22:31:22.694Z,0.45
2019-01-31T22:33:52.635Z,0.42
2019-01-31T22:36:23.732Z,0.21
2019-01-31T22:38:53.592Z,0.31
2019-01-31T22:41:23.696Z,0.26
2019-01-31T22:43:53.606Z,0.28
2019-01-31T22:46:23.577Z,0.26
2019-01-31T22:48:53.562Z,0.24
2019-01-31T22:51:23.533Z,0.13
2019-01-31T22:53:53.465Z,0.30
2019-01-31T22:56:23.417Z,0.09
2019-01-31T22:58:53.408Z,0.04
2019-01-31T23:01:42.051Z,0.16
2019-01-31T23:04:12.991Z,0.22
2019-01-31T23:06:42.753Z,0.26
2019-01-31T23:09:13.307Z,0.06
2019-01-31T23:11:43.414Z,0.07
2019-01-31T23:14:13.419Z,0.06
2019-01-31T23:16:43.319Z,0.12
2019-01-31T23:19:13.356Z,0.12
2019-01-31T23:21:43.263Z,-0.23
2019-01-31T23:24:13.258Z,-0.08
2019-01-31T23:26:43.086Z,-0.12
2019-01-31T23:29:13.057Z,-0.02
2019-01-31T23:31:42.984Z,-0.08
2019-01-31T23:34:13.030Z,-0.03
2019-01-31T23:36:43.088Z,-0.15
2019-01-31T23:39:13.136Z,-0.18
2019-01-31T23:41:42.983Z,-0.21
2019-01-31T23:44:12.973Z,-0.20
2019-01-31T23:46:42.850Z,-0.20
2019-01-31T23:49:12.789Z,-0.23
2019-01-31T23:51:42.774Z,-0.15
2019-01-31T23:54:12.702Z,-0.10
2019-01-31T23:56:42.610Z,-0.75
2019-01-31T23:59:12.582Z,-0.30
